createdAt,value
2017-09-21T00:00:32.121Z,10.70
2017-09-21T00:02:59.677Z,12.63
2017-09-21T00:05:27.651Z,14.43
2017-09-21T00:07:55.224Z,11.60
2017-09-21T00:10:22.784Z,11.57
2017-09-21T00:12:50.370Z,10.80
2017-09-21T00:15:17.940Z,11.90
2017-09-21T00:17:45.966Z,11.30
2017-09-21T00:20:13.526Z,11.77
2017-09-21T00:22:41.086Z,13.70
2017-09-21T00:25:08.683Z,13.20
2017-09-21T00:27:36.383Z,12.83
2017-09-21T00:30:04.276Z,13.70
2017-09-21T00:32:31.859Z,12.57
2017-09-21T00:34:59.424Z,13.47
2017-09-21T00:37:27.954Z,11.80
2017-09-21T00:39:55.531Z,12.37
2017-09-21T00:42:23.939Z,13.10
2017-09-21T00:44:51.536Z,13.20
2017-09-21T00:47:19.100Z,12.97
2017-09-21T00:49:46.703Z,14.13
2017-09-21T00:52:14.291Z,15.97
2017-09-21T00:54:42.935Z,13.90
2017-09-21T00:57:10.517Z,14.20
2017-09-21T00:59:38.067Z,14.30
2017-09-21T01:02:05.667Z,14.17
2017-09-21T01:04:33.223Z,14.50
2017-09-21T01:07:01.077Z,13.17
2017-09-21T01:09:29.399Z,14.83
2017-09-21T01:11:56.961Z,13.43
2017-09-21T01:14:24.570Z,14.13
2017-09-21T01:16:52.140Z,13.57
2017-09-21T01:19:20.942Z,11.97
2017-09-21T01:21:48.699Z,12.73
2017-09-21T01:24:16.250Z,12.80
2017-09-21T01:26:43.852Z,12.17
2017-09-21T01:29:11.415Z,12.53
2017-09-21T01:31:39.282Z,12.50
2017-09-21T01:34:06.840Z,14.17
2017-09-21T01:36:34.405Z,13.00
2017-09-21T01:39:01.995Z,12.70
2017-09-21T01:41:29.551Z,13.43
2017-09-21T01:43:57.608Z,13.60
2017-09-21T01:46:25.305Z,13.10
2017-09-21T01:48:52.871Z,14.10
2017-09-21T01:51:20.489Z,13.93
2017-09-21T01:53:48.050Z,13.93
2017-09-21T01:56:16.123Z,14.50
2017-09-21T01:58:43.687Z,14.23
2017-09-21T02:01:11.248Z,13.33
2017-09-21T02:03:38.841Z,12.70
2017-09-21T02:06:06.402Z,13.80
2017-09-21T02:08:34.419Z,14.40
2017-09-21T02:11:01.958Z,14.50
2017-09-21T02:13:29.517Z,14.67
2017-09-21T02:15:57.099Z,13.50
2017-09-21T02:18:24.650Z,13.67
2017-09-21T02:20:52.543Z,13.73
2017-09-21T02:23:20.116Z,14.17
2017-09-21T02:28:21.525Z,17.10
2017-09-21T02:30:49.132Z,16.40
2017-09-21T02:33:17.209Z,16.30
2017-09-21T02:35:45.578Z,15.13
2017-09-21T02:38:13.173Z,15.03
2017-09-21T02:40:41.027Z,15.33
2017-09-21T02:43:09.367Z,16.93
2017-09-21T02:45:37.335Z,16.17
2017-09-21T02:48:04.886Z,17.00
2017-09-21T02:50:32.590Z,15.70
2017-09-21T02:53:00.176Z,17.27
2017-09-21T02:55:27.740Z,15.97
2017-09-21T02:57:55.651Z,15.87
2017-09-21T03:00:23.212Z,16.23
2017-09-21T03:02:50.774Z,16.70
2017-09-21T03:05:18.520Z,16.37
2017-09-21T03:07:46.126Z,17.60
2017-09-21T03:10:14.775Z,17.60
2017-09-21T03:12:42.350Z,16.20
2017-09-21T03:15:09.924Z,18.90
2017-09-21T03:17:38.276Z,17.20
2017-09-21T03:20:05.835Z,16.00
2017-09-21T03:22:33.907Z,17.40
2017-09-21T03:25:01.460Z,16.00
2017-09-21T03:27:29.022Z,16.17
2017-09-21T03:29:56.619Z,17.40
2017-09-21T03:32:24.179Z,18.10
2017-09-21T03:34:52.828Z,16.80
2017-09-21T03:37:20.411Z,17.87
2017-09-21T03:39:47.977Z,18.53
2017-09-21T03:42:16.529Z,20.97
2017-09-21T03:44:44.094Z,18.27
2017-09-21T03:47:12.151Z,18.27
2017-09-21T03:49:39.709Z,18.20
2017-09-21T03:52:07.266Z,17.13
2017-09-21T03:54:34.862Z,17.73
2017-09-21T03:57:02.445Z,18.00
2017-09-21T03:59:30.344Z,19.87
2017-09-21T04:01:57.911Z,19.77
2017-09-21T04:04:25.548Z,17.20
2017-09-21T04:06:53.165Z,18.97
2017-09-21T04:09:20.741Z,20.07
2017-09-21T04:11:49.407Z,17.30
2017-09-21T04:14:16.999Z,18.80
2017-09-21T04:16:44.559Z,18.10
2017-09-21T04:19:12.976Z,19.93
2017-09-21T04:21:40.572Z,18.70
2017-09-21T04:24:09.239Z,18.93
2017-09-21T04:26:36.815Z,17.13
2017-09-21T04:29:05.163Z,20.60
2017-09-21T04:31:33.596Z,17.93
2017-09-21T04:34:01.192Z,21.20
2017-09-21T04:36:29.294Z,18.73
2017-09-21T04:38:56.862Z,19.10
2017-09-21T04:41:24.419Z,18.90
2017-09-21T04:43:52.010Z,20.07
2017-09-21T04:46:19.626Z,20.77
2017-09-21T04:48:47.502Z,19.30
2017-09-21T04:51:16.570Z,20.83
2017-09-21T04:53:44.147Z,19.50
2017-09-21T04:56:11.751Z,20.20
2017-09-21T04:58:39.302Z,21.93
2017-09-21T05:01:08.027Z,21.03
2017-09-21T05:03:35.577Z,21.80
2017-09-21T05:06:03.152Z,20.90
2017-09-21T05:08:30.752Z,20.53
2017-09-21T05:10:59.090Z,19.93
2017-09-21T05:13:27.086Z,22.13
2017-09-21T05:15:54.650Z,21.20
2017-09-21T05:18:22.228Z,21.00
2017-09-21T05:20:50.594Z,21.83
2017-09-21T05:23:18.150Z,18.90
2017-09-21T05:25:46.211Z,21.10
2017-09-21T05:28:13.810Z,20.53
2017-09-21T05:30:42.006Z,20.60
2017-09-21T05:33:09.623Z,18.80
2017-09-21T05:35:37.947Z,19.10
2017-09-21T05:38:05.943Z,20.30
2017-09-21T05:40:33.508Z,19.57
2017-09-21T05:43:01.067Z,19.63
2017-09-21T05:45:28.787Z,19.93
2017-09-21T05:47:56.322Z,18.60
2017-09-21T05:50:24.249Z,19.70
2017-09-21T05:52:51.804Z,20.40
2017-09-21T05:55:19.359Z,19.53
2017-09-21T05:57:47.051Z,21.60
2017-09-21T06:00:14.615Z,22.63
2017-09-21T06:02:42.590Z,20.30
2017-09-21T06:05:10.925Z,23.13
2017-09-21T06:07:38.495Z,20.37
2017-09-21T06:10:06.113Z,21.70
2017-09-21T06:12:33.671Z,22.00
2017-09-21T06:15:01.564Z,21.13
2017-09-21T06:17:29.135Z,21.10
2017-09-21T06:19:56.700Z,20.50
2017-09-21T06:22:24.296Z,21.20
2017-09-21T06:24:52.623Z,21.90
2017-09-21T06:27:20.621Z,23.37
2017-09-21T06:29:48.182Z,23.47
2017-09-21T06:32:15.741Z,21.53
2017-09-21T06:34:43.346Z,21.30
2017-09-21T06:37:10.910Z,20.30
2017-09-21T06:39:38.884Z,21.17
2017-09-21T06:42:06.440Z,21.90
2017-09-21T06:44:34.084Z,20.47
2017-09-21T06:47:01.703Z,23.00
2017-09-21T06:49:29.275Z,22.13
2017-09-21T06:51:58.665Z,21.57
2017-09-21T06:54:26.242Z,21.70
2017-09-21T06:56:53.835Z,22.20
2017-09-21T06:59:21.646Z,21.87
2017-09-21T07:01:49.207Z,22.00
2017-09-21T07:04:17.182Z,23.43
2017-09-21T07:06:45.540Z,22.03
2017-09-21T07:09:13.118Z,22.00
2017-09-21T07:11:40.719Z,22.73
2017-09-21T07:14:08.278Z,23.43
2017-09-21T07:16:37.163Z,22.57
2017-09-21T07:19:05.508Z,23.20
2017-09-21T07:21:33.059Z,23.53
2017-09-21T07:24:00.646Z,22.90
2017-09-21T07:26:28.223Z,25.03
2017-09-21T07:28:57.007Z,24.30
2017-09-21T07:31:24.566Z,26.13
2017-09-21T07:33:52.897Z,24.40
2017-09-21T07:36:20.495Z,23.33
2017-09-21T07:38:49.076Z,25.50
2017-09-21T07:41:16.954Z,24.30
2017-09-21T07:43:44.555Z,23.80
2017-09-21T07:46:12.114Z,24.23
2017-09-21T07:48:39.708Z,25.73
2017-09-21T07:51:07.272Z,25.10
2017-09-21T07:53:35.336Z,23.63
2017-09-21T07:56:02.894Z,23.20
2017-09-21T07:58:30.456Z,25.93
2017-09-21T08:00:58.058Z,24.40
2017-09-21T08:03:25.617Z,26.63
2017-09-21T08:05:53.657Z,25.77
2017-09-21T08:08:21.207Z,26.37
2017-09-21T08:10:48.766Z,26.53
2017-09-21T08:13:16.362Z,26.87
2017-09-21T08:15:43.947Z,24.97
2017-09-21T08:18:11.955Z,27.53
2017-09-21T08:20:39.531Z,26.73
2017-09-21T08:23:07.115Z,24.70
2017-09-21T08:25:34.803Z,26.63
2017-09-21T08:30:36.602Z,26.00
2017-09-21T08:33:04.316Z,27.13
2017-09-21T08:35:31.906Z,26.37
2017-09-21T08:37:59.503Z,25.80
2017-09-21T08:40:27.839Z,24.70
2017-09-21T08:42:55.707Z,28.50
2017-09-21T08:45:23.277Z,26.13
2017-09-21T08:47:50.842Z,27.67
2017-09-21T08:50:18.464Z,25.80
2017-09-21T08:52:46.051Z,28.37
2017-09-21T08:55:14.067Z,28.53
2017-09-21T08:57:42.489Z,28.90
2017-09-21T09:00:10.069Z,27.30
2017-09-21T09:02:37.667Z,26.17
2017-09-21T09:05:06.007Z,27.23
2017-09-21T09:07:33.990Z,25.50
2017-09-21T09:10:01.547Z,25.33
2017-09-21T09:12:29.113Z,24.20
2017-09-21T09:14:56.705Z,28.20
2017-09-21T09:17:24.291Z,28.70
2017-09-21T09:19:52.299Z,26.73
2017-09-21T09:22:19.892Z,27.83
2017-09-21T09:24:47.477Z,25.13
2017-09-21T09:27:15.070Z,26.37
2017-09-21T09:29:42.627Z,28.63
2017-09-21T09:32:10.606Z,27.30
2017-09-21T09:34:38.154Z,26.77
2017-09-21T09:37:05.716Z,27.00
2017-09-21T09:39:33.338Z,27.00
2017-09-21T09:42:00.889Z,25.23
2017-09-21T09:44:28.942Z,25.77
2017-09-21T09:46:57.291Z,26.30
2017-09-21T09:49:24.857Z,26.40
2017-09-21T09:51:53.216Z,27.30
2017-09-21T09:54:20.787Z,25.87
2017-09-21T09:56:48.658Z,27.20
2017-09-21T09:59:16.203Z,26.23
2017-09-21T10:01:43.785Z,28.80
2017-09-21T10:04:11.404Z,13.33
2017-09-21T10:06:39.076Z,27.50
2017-09-21T10:09:07.005Z,28.33
2017-09-21T10:11:34.656Z,28.70
2017-09-21T10:14:02.998Z,14.53
2017-09-21T10:16:30.747Z,27.03
2017-09-21T10:18:58.351Z,22.60
2017-09-21T10:21:26.296Z,28.73
2017-09-21T10:23:53.855Z,28.17
2017-09-21T10:26:21.436Z,26.90
2017-09-21T10:28:49.041Z,28.10
2017-09-21T10:31:16.779Z,26.93
2017-09-21T10:33:45.430Z,27.80
2017-09-21T10:36:13.008Z,27.17
2017-09-21T10:38:40.799Z,26.47
2017-09-21T10:41:08.454Z,27.00
2017-09-21T10:43:36.133Z,26.00
2017-09-21T10:46:04.000Z,29.77
2017-09-21T10:48:31.783Z,29.00
2017-09-21T10:50:59.522Z,28.80
2017-09-21T10:53:27.181Z,27.67
2017-09-21T10:55:55.625Z,26.43
2017-09-21T10:58:23.689Z,27.93
2017-09-21T11:00:51.470Z,27.40
2017-09-21T11:03:19.022Z,29.30
2017-09-21T11:05:46.678Z,29.03
2017-09-21T11:08:14.259Z,18.57
2017-09-21T11:10:43.014Z,23.27
2017-09-21T11:13:10.598Z,23.27
2017-09-21T11:15:38.170Z,21.63
2017-09-21T11:18:06.694Z,19.77
2017-09-21T11:20:34.358Z,16.30
2017-09-21T11:23:02.361Z,22.80
2017-09-21T11:25:30.055Z,17.60
2017-09-21T11:27:58.408Z,17.93
2017-09-21T11:30:26.011Z,17.83
2017-09-21T11:32:53.563Z,20.57
2017-09-21T11:35:21.484Z,21.13
2017-09-21T11:37:49.035Z,21.20
2017-09-21T11:40:16.604Z,22.60
2017-09-21T11:42:44.195Z,18.97
2017-09-21T11:45:11.762Z,21.70
2017-09-21T11:47:40.440Z,20.30
2017-09-21T11:50:09.032Z,20.33
2017-09-21T11:52:36.635Z,21.10
2017-09-21T11:55:04.286Z,20.30
2017-09-21T11:57:31.975Z,23.20
2017-09-21T11:59:59.877Z,17.47
2017-09-21T12:02:27.446Z,15.60
2017-09-21T12:04:55.781Z,17.50
2017-09-21T12:07:24.137Z,16.97
2017-09-21T12:09:52.527Z,18.20
2017-09-21T12:12:20.510Z,19.90
2017-09-21T12:14:48.067Z,18.37
2017-09-21T12:17:15.627Z,16.00
2017-09-21T12:19:43.588Z,19.70
2017-09-21T12:22:11.159Z,19.37
2017-09-21T12:24:41.831Z,15.67
2017-09-21T12:27:09.388Z,16.27
2017-09-21T12:29:37.753Z,17.40
2017-09-21T12:32:05.369Z,18.73
2017-09-21T12:34:32.942Z,15.37
2017-09-21T12:37:00.934Z,15.77
2017-09-21T12:39:28.545Z,18.73
2017-09-21T12:41:56.115Z,15.33
2017-09-21T12:44:23.886Z,17.27
2017-09-21T12:46:51.600Z,15.37
2017-09-21T12:49:19.640Z,16.57
2017-09-21T12:51:47.212Z,16.80
2017-09-21T12:54:14.895Z,16.70
2017-09-21T12:56:43.322Z,16.23
2017-09-21T12:59:10.877Z,13.77
2017-09-21T13:01:39.693Z,12.30
2017-09-21T13:04:08.045Z,12.73
2017-09-21T13:06:35.610Z,11.10
2017-09-21T13:09:03.296Z,12.20
2017-09-21T13:11:31.718Z,9.03
2017-09-21T13:13:59.723Z,9.70
2017-09-21T13:16:27.300Z,10.47
2017-09-21T13:18:54.920Z,9.47
2017-09-21T13:21:24.234Z,9.00
2017-09-21T13:23:51.865Z,9.00
2017-09-21T13:26:19.485Z,10.67
2017-09-21T13:28:47.966Z,12.13
2017-09-21T13:31:16.640Z,10.40
2017-09-21T13:33:44.207Z,9.97
2017-09-21T13:36:11.807Z,11.60
2017-09-21T13:38:39.422Z,11.20
2017-09-21T13:41:07.090Z,12.00
2017-09-21T13:43:35.017Z,10.70
2017-09-21T13:46:02.587Z,10.23
2017-09-21T13:48:30.272Z,9.23
2017-09-21T13:50:58.396Z,7.80
2017-09-21T13:53:25.966Z,8.30
2017-09-21T13:55:54.085Z,8.80
2017-09-21T13:58:22.449Z,7.17
2017-09-21T14:00:50.047Z,9.70
2017-09-21T14:03:18.480Z,10.30
2017-09-21T14:05:46.075Z,10.07
2017-09-21T14:08:14.055Z,10.20
2017-09-21T14:10:43.208Z,11.00
2017-09-21T14:13:10.775Z,9.23
2017-09-21T14:15:38.378Z,11.10
2017-09-21T14:18:05.988Z,8.97
2017-09-21T14:20:33.966Z,11.43
2017-09-21T14:23:01.543Z,12.97
2017-09-21T14:25:29.162Z,12.00
2017-09-21T14:27:56.812Z,12.80
2017-09-21T14:30:24.352Z,13.57
2017-09-21T14:32:52.327Z,10.73
2017-09-21T14:35:19.883Z,13.10
2017-09-21T14:37:47.711Z,14.40
2017-09-21T14:40:15.370Z,9.97
2017-09-21T14:42:42.944Z,11.10
2017-09-21T14:45:11.619Z,11.90
2017-09-21T14:47:39.243Z,21.77
2017-09-21T14:50:07.053Z,18.50
2017-09-21T14:52:34.659Z,12.40
2017-09-21T14:55:03.017Z,13.80
2017-09-21T14:57:31.157Z,12.43
2017-09-21T14:59:59.490Z,11.47
2017-09-21T15:02:27.171Z,14.43
2017-09-21T15:04:54.814Z,13.53
2017-09-21T15:07:22.457Z,15.23
2017-09-21T15:09:50.505Z,15.90
2017-09-21T15:12:18.881Z,15.00
2017-09-21T15:14:46.469Z,16.37
2017-09-21T15:17:14.850Z,14.17
2017-09-21T15:19:42.439Z,15.00
2017-09-21T15:22:10.440Z,14.87
2017-09-21T15:24:38.095Z,15.77
2017-09-21T15:27:05.679Z,14.87
2017-09-21T15:29:33.295Z,14.67
2017-09-21T15:32:00.857Z,14.27
2017-09-21T15:34:28.951Z,14.50
2017-09-21T15:36:56.521Z,15.57
2017-09-21T15:39:25.736Z,11.60
2017-09-21T15:41:54.121Z,12.60
2017-09-21T15:44:21.672Z,14.77
2017-09-21T15:46:50.335Z,13.70
2017-09-21T15:49:17.964Z,14.30
2017-09-21T15:51:45.561Z,14.27
2017-09-21T15:54:13.813Z,14.40
2017-09-21T15:56:41.386Z,15.33
2017-09-21T15:59:09.256Z,15.00
2017-09-21T16:01:36.951Z,15.47
2017-09-21T16:04:05.362Z,15.60
2017-09-21T16:06:33.002Z,15.20
2017-09-21T16:09:00.563Z,14.00
2017-09-21T16:11:28.500Z,15.17
2017-09-21T16:13:56.101Z,13.60
2017-09-21T16:16:23.917Z,14.50
2017-09-21T16:18:51.834Z,14.63
2017-09-21T16:21:19.510Z,14.00
2017-09-21T16:23:47.524Z,16.00
2017-09-21T16:26:15.118Z,15.80
2017-09-21T16:28:42.721Z,14.27
2017-09-21T16:31:10.331Z,15.03
2017-09-21T16:33:37.885Z,14.47
2017-09-21T16:36:06.030Z,16.57
2017-09-21T16:38:33.633Z,14.53
2017-09-21T16:41:01.215Z,16.53
2017-09-21T16:43:28.844Z,16.40
2017-09-21T16:45:57.221Z,15.97
2017-09-21T16:48:25.146Z,15.17
2017-09-21T16:50:52.718Z,13.90
2017-09-21T16:53:21.879Z,13.87
2017-09-21T16:55:49.504Z,14.23
2017-09-21T16:58:17.079Z,13.57
2017-09-21T17:00:45.325Z,14.60
2017-09-21T17:03:13.707Z,14.90
2017-09-21T17:05:41.284Z,14.53
2017-09-21T17:08:09.650Z,14.23
2017-09-21T17:10:37.223Z,16.30
2017-09-21T17:13:06.086Z,15.13
2017-09-21T17:15:33.643Z,14.17
2017-09-21T17:18:01.229Z,16.10
2017-09-21T17:20:29.584Z,15.20
2017-09-21T17:22:57.170Z,15.50
2017-09-21T17:25:25.206Z,16.43
2017-09-21T17:27:52.806Z,16.60
2017-09-21T17:30:20.529Z,14.27
2017-09-21T17:32:48.219Z,16.93
2017-09-21T17:35:16.562Z,15.70
2017-09-21T17:37:44.696Z,14.47
2017-09-21T17:40:12.294Z,15.87
2017-09-21T17:42:39.849Z,15.30
2017-09-21T17:45:07.481Z,14.53
2017-09-21T17:47:35.935Z,15.40
2017-09-21T17:50:03.861Z,14.43
2017-09-21T17:52:31.437Z,14.83
2017-09-21T17:54:59.025Z,15.80
2017-09-21T17:57:26.643Z,15.10
2017-09-21T17:59:54.209Z,16.40
2017-09-21T18:02:22.166Z,17.53
2017-09-21T18:04:49.756Z,16.43
2017-09-21T18:07:17.387Z,15.57
2017-09-21T18:09:44.986Z,16.97
2017-09-21T18:12:13.351Z,15.97
2017-09-21T18:14:41.310Z,16.87
2017-09-21T18:17:08.882Z,17.07
2017-09-21T18:19:36.441Z,17.17
2017-09-21T18:22:04.082Z,17.10
2017-09-21T18:24:31.668Z,15.60
2017-09-21T18:27:00.700Z,16.20
2017-09-21T18:29:28.270Z,16.60
2017-09-21T18:31:55.875Z,13.90
2017-09-21T18:34:25.110Z,15.83
2017-09-21T18:36:52.916Z,14.20
2017-09-21T18:39:20.943Z,15.10
2017-09-21T18:41:48.559Z,14.13
2017-09-21T18:44:16.139Z,18.90
2017-09-21T18:46:43.886Z,17.33
2017-09-21T18:49:12.141Z,15.60
2017-09-21T18:51:40.235Z,16.13
2017-09-21T18:54:07.829Z,16.10
2017-09-21T18:56:35.412Z,15.87
2017-09-21T18:59:03.081Z,15.33
2017-09-21T19:01:30.668Z,15.53
2017-09-21T19:03:58.768Z,15.97
2017-09-21T19:06:27.150Z,15.00
2017-09-21T19:08:54.736Z,15.90
2017-09-21T19:11:22.379Z,15.40
2017-09-21T19:13:50.717Z,15.83
2017-09-21T19:16:18.711Z,15.40
2017-09-21T19:18:46.320Z,14.10
2017-09-21T19:21:14.531Z,16.43
2017-09-21T19:23:42.199Z,18.20
2017-09-21T19:26:09.783Z,16.97
2017-09-21T19:28:38.440Z,17.00
2017-09-21T19:31:06.036Z,18.43
2017-09-21T19:33:33.631Z,19.13
2017-09-21T19:36:01.460Z,26.97
2017-09-21T19:38:29.051Z,27.97
2017-09-21T19:40:57.430Z,19.93
2017-09-21T19:43:25.079Z,18.77
2017-09-21T19:45:52.703Z,21.50
2017-09-21T19:48:21.198Z,19.97
2017-09-21T19:50:49.090Z,18.40
2017-09-21T19:53:16.715Z,16.60
2017-09-21T19:55:45.032Z,19.10
2017-09-21T19:58:12.660Z,17.30
2017-09-21T20:00:41.038Z,17.17
2017-09-21T20:03:08.749Z,16.57
2017-09-21T20:05:36.334Z,17.67
2017-09-21T20:08:04.240Z,18.80
2017-09-21T20:10:31.835Z,20.40
2017-09-21T20:12:59.445Z,19.13
2017-09-21T20:15:27.872Z,18.97
2017-09-21T20:17:56.134Z,18.70
2017-09-21T20:20:24.122Z,18.20
2017-09-21T20:22:51.687Z,20.23
2017-09-21T20:25:19.266Z,17.00
2017-09-21T20:27:46.894Z,18.20
2017-09-21T20:30:14.474Z,18.53
2017-09-21T20:32:42.379Z,19.13
2017-09-21T20:35:10.704Z,20.63
2017-09-21T20:37:38.293Z,17.77
2017-09-21T20:40:05.939Z,20.07
2017-09-21T20:42:33.524Z,20.60
2017-09-21T20:45:02.659Z,18.20
2017-09-21T20:47:30.251Z,19.03
2017-09-21T20:49:57.872Z,22.43
2017-09-21T20:52:25.472Z,21.30
2017-09-21T20:54:53.059Z,21.20
2017-09-21T20:57:21.015Z,19.00
2017-09-21T20:59:48.590Z,20.03
2017-09-21T21:02:16.175Z,19.30
2017-09-21T21:04:44.535Z,18.43
2017-09-21T21:07:12.132Z,20.87
2017-09-21T21:09:39.749Z,21.60
2017-09-21T21:12:07.356Z,18.83
2017-09-21T21:14:34.974Z,21.87
2017-09-21T21:17:02.746Z,21.03
2017-09-21T21:22:05.704Z,19.47
2017-09-21T21:24:33.325Z,20.80
2017-09-21T21:27:00.917Z,20.67
2017-09-21T21:29:28.520Z,20.13
2017-09-21T21:31:56.125Z,22.20
2017-09-21T21:34:23.765Z,22.50
2017-09-21T21:36:52.160Z,20.93
2017-09-21T21:39:19.775Z,22.80
2017-09-21T21:41:47.331Z,25.00
2017-09-21T21:44:15.270Z,22.63
2017-09-21T21:46:42.900Z,21.73
2017-09-21T21:49:10.681Z,22.40
2017-09-21T21:51:38.581Z,22.80
2017-09-21T21:54:06.166Z,22.93
2017-09-21T21:56:33.736Z,24.03
2017-09-21T21:59:02.132Z,23.57
2017-09-21T22:01:29.739Z,22.73
2017-09-21T22:03:57.918Z,23.87
2017-09-21T22:06:25.459Z,22.83
2017-09-21T22:08:53.019Z,21.90
2017-09-21T22:11:20.610Z,23.07
2017-09-21T22:13:48.166Z,22.77
2017-09-21T22:16:16.224Z,21.23
2017-09-21T22:18:43.788Z,22.03
2017-09-21T22:21:11.563Z,21.23
2017-09-21T22:23:39.569Z,23.47
2017-09-21T22:26:07.127Z,24.90
2017-09-21T22:28:35.763Z,22.53
2017-09-21T22:31:03.324Z,21.70
2017-09-21T22:33:30.913Z,25.13
2017-09-21T22:35:59.301Z,23.47
2017-09-21T22:38:26.854Z,24.63
2017-09-21T22:40:55.475Z,24.03
2017-09-21T22:43:23.030Z,23.00
2017-09-21T22:45:50.590Z,23.43
2017-09-21T22:48:18.202Z,21.93
2017-09-21T22:50:45.780Z,24.03
2017-09-21T22:53:14.437Z,22.80
2017-09-21T22:55:42.008Z,22.43
2017-09-21T22:58:09.554Z,23.63
2017-09-21T23:00:50.615Z,22.90
2017-09-21T23:03:18.923Z,22.00
2017-09-21T23:05:46.906Z,23.40
2017-09-21T23:08:14.523Z,23.37
2017-09-21T23:10:42.075Z,23.57
2017-09-21T23:13:10.488Z,22.03
2017-09-21T23:15:38.058Z,23.37
2017-09-21T23:18:06.004Z,23.63
2017-09-21T23:20:33.560Z,23.93
2017-09-21T23:23:01.128Z,23.60
2017-09-21T23:25:28.724Z,21.30
2017-09-21T23:27:56.267Z,23.77
2017-09-21T23:30:24.144Z,24.63
2017-09-21T23:32:51.703Z,24.00
2017-09-21T23:35:19.251Z,23.77
2017-09-21T23:37:46.846Z,23.23
2017-09-21T23:40:14.409Z,23.20
2017-09-21T23:42:42.254Z,25.70
2017-09-21T23:45:09.816Z,24.80
2017-09-21T23:47:37.387Z,25.23
2017-09-21T23:50:04.983Z,22.77
2017-09-21T23:52:32.535Z,22.77
2017-09-21T23:55:01.180Z,22.40
2017-09-21T23:57:28.740Z,21.47
2017-09-21T23:59:56.290Z,22.67
